createdAt,value
2023-01-13T00:00:55.096Z,1.13
2023-01-13T00:04:01.140Z,1.15
2023-01-13T00:07:03.994Z,1.07
2023-01-13T00:10:10.042Z,0.99
2023-01-13T00:13:14.405Z,0.93
2023-01-13T00:16:18.379Z,0.91
2023-01-13T00:19:21.193Z,0.98
2023-01-13T00:22:24.064Z,0.98
2023-01-13T00:25:28.045Z,1.04
2023-01-13T00:28:31.564Z,0.97
2023-01-13T00:31:34.418Z,1.08
2023-01-13T00:34:37.621Z,1.07
2023-01-13T00:37:44.214Z,1.21
2023-01-13T00:41:13.341Z,1.32
2023-01-13T00:44:15.937Z,1.21
2023-01-13T00:47:18.937Z,1.25
2023-01-13T00:50:24.158Z,1.26
2023-01-13T00:53:34.628Z,1.34
2023-01-13T00:56:40.531Z,1.56
2023-01-13T00:59:44.407Z,1.54
2023-01-13T01:02:47.179Z,1.56
2023-01-13T01:05:50.154Z,1.48
2023-01-13T01:08:54.670Z,1.41
2023-01-13T01:11:57.686Z,1.31
2023-01-13T01:15:00.255Z,1.36
2023-01-13T01:18:03.354Z,1.34
2023-01-13T01:21:06.558Z,1.45
2023-01-13T01:24:09.643Z,1.42
2023-01-13T01:27:12.222Z,1.44
2023-01-13T01:30:15.455Z,1.53
2023-01-13T01:33:18.199Z,1.54
2023-01-13T01:36:23.640Z,1.68
2023-01-13T01:39:26.271Z,1.70
2023-01-13T01:42:47.645Z,1.80
2023-01-13T01:45:52.673Z,1.61
2023-01-13T01:49:12.239Z,1.54
2023-01-13T01:52:23.142Z,1.53
2023-01-13T01:55:32.062Z,1.39
2023-01-13T01:58:45.646Z,1.53
2023-01-13T02:01:48.730Z,1.37
2023-01-13T02:04:55.005Z,1.56
2023-01-13T02:07:59.745Z,1.54
2023-01-13T02:11:02.823Z,1.60
2023-01-13T02:14:05.617Z,1.67
2023-01-13T02:17:36.193Z,1.56
2023-01-13T02:20:54.429Z,1.54
2023-01-13T02:24:46.397Z,1.58
2023-01-13T02:28:02.896Z,1.63
2023-01-13T02:31:33.983Z,1.80
2023-01-13T02:34:42.522Z,1.77
2023-01-13T02:37:46.424Z,1.77
2023-01-13T02:40:59.516Z,1.75
2023-01-13T02:44:08.410Z,1.82
2023-01-13T02:47:20.566Z,1.91
2023-01-13T02:50:30.967Z,1.90
2023-01-13T02:54:20.710Z,1.90
2023-01-13T02:57:26.616Z,1.99
2023-01-13T03:00:31.207Z,2.00
2023-01-13T03:03:34.249Z,1.95
2023-01-13T03:07:12.919Z,2.05
2023-01-13T03:10:40.196Z,1.98
2023-01-13T03:14:18.366Z,1.84
2023-01-13T03:17:50.047Z,1.85
2023-01-13T03:21:18.745Z,1.81
2023-01-13T03:24:43.056Z,1.77
2023-01-13T03:27:51.537Z,1.80
2023-01-13T03:31:00.172Z,1.81
2023-01-13T03:34:13.230Z,1.70
2023-01-13T03:37:20.938Z,1.66
2023-01-13T03:40:30.084Z,1.77
2023-01-13T03:44:03.998Z,1.69
2023-01-13T03:47:10.621Z,1.74
2023-01-13T03:50:43.902Z,1.68
2023-01-13T03:53:54.791Z,1.69
2023-01-13T03:57:04.223Z,1.74
2023-01-13T04:00:12.367Z,1.80
2023-01-13T04:03:33.168Z,1.75
2023-01-13T04:07:04.753Z,1.74
2023-01-13T04:10:10.536Z,1.78
2023-01-13T04:13:21.898Z,1.91
2023-01-13T04:16:25.091Z,1.89
2023-01-13T04:19:28.006Z,1.97
2023-01-13T04:22:30.638Z,1.83
2023-01-13T04:25:33.878Z,1.91
2023-01-13T04:28:36.443Z,1.83
2023-01-13T04:31:39.487Z,1.93
2023-01-13T04:34:47.421Z,1.87
2023-01-13T04:37:50.567Z,1.87
2023-01-13T04:40:55.735Z,1.91
2023-01-13T04:43:58.608Z,1.90
2023-01-13T04:47:03.270Z,1.82
2023-01-13T04:50:06.608Z,1.85
2023-01-13T04:53:09.373Z,1.84
2023-01-13T04:56:12.315Z,1.88
2023-01-13T04:59:15.232Z,1.83
2023-01-13T05:02:21.075Z,1.94
2023-01-13T05:05:24.058Z,1.96
2023-01-13T05:08:27.089Z,1.95
2023-01-13T05:11:48.618Z,1.98
2023-01-13T05:15:10.020Z,1.83
2023-01-13T05:18:13.212Z,1.88
2023-01-13T05:21:35.062Z,1.88
2023-01-13T05:24:56.770Z,2.07
2023-01-13T05:28:01.014Z,1.95
2023-01-13T05:31:04.416Z,1.83
2023-01-13T05:34:11.068Z,1.87
2023-01-13T05:37:14.039Z,1.95
2023-01-13T05:40:37.559Z,1.83
2023-01-13T05:43:40.127Z,1.82
2023-01-13T05:46:43.070Z,1.84
2023-01-13T05:49:48.772Z,1.80
2023-01-13T05:52:51.884Z,1.82
2023-01-13T05:55:54.865Z,1.79
2023-01-13T05:58:57.741Z,1.75
2023-01-13T06:02:03.301Z,1.70
2023-01-13T06:05:06.464Z,1.73
2023-01-13T06:08:09.477Z,1.84
2023-01-13T06:11:12.485Z,1.74
2023-01-13T06:14:15.462Z,1.91
2023-01-13T06:17:18.884Z,1.82
2023-01-13T06:20:22.623Z,1.77
2023-01-13T06:23:26.450Z,1.82
2023-01-13T06:26:31.701Z,1.82
2023-01-13T06:29:34.886Z,1.78
2023-01-13T06:32:44.443Z,1.74
2023-01-13T06:35:59.987Z,1.94
2023-01-13T06:39:04.304Z,1.77
2023-01-13T06:42:26.125Z,1.74
2023-01-13T06:45:31.125Z,1.90
2023-01-13T06:48:37.152Z,1.93
2023-01-13T06:51:40.289Z,1.89
2023-01-13T06:54:43.384Z,1.91
2023-01-13T06:57:53.807Z,2.00
2023-01-13T07:01:00.533Z,2.23
2023-01-13T07:04:03.874Z,2.40
2023-01-13T07:07:07.990Z,2.36
2023-01-13T07:10:13.293Z,2.29
2023-01-13T07:13:36.190Z,2.37
2023-01-13T07:16:39.356Z,2.24
2023-01-13T07:19:42.577Z,2.29
2023-01-13T07:22:47.865Z,2.39
2023-01-13T07:25:51.540Z,2.29
2023-01-13T07:28:54.439Z,2.42
2023-01-13T07:31:57.490Z,2.36
2023-01-13T07:35:05.627Z,2.46
2023-01-13T07:38:09.131Z,2.41
2023-01-13T07:41:33.056Z,2.45
2023-01-13T07:44:39.815Z,2.42
2023-01-13T07:47:43.384Z,2.45
2023-01-13T07:50:46.723Z,2.38
2023-01-13T07:53:50.077Z,2.38
2023-01-13T07:56:53.135Z,2.61
2023-01-13T07:59:58.642Z,2.61
2023-01-13T08:03:01.893Z,2.59
2023-01-13T08:06:06.622Z,2.81
2023-01-13T08:09:09.900Z,2.90
2023-01-13T08:12:32.059Z,3.00
2023-01-13T08:15:34.846Z,2.96
2023-01-13T08:18:38.738Z,3.19
2023-01-13T08:21:41.403Z,3.02
2023-01-13T08:24:44.351Z,3.02
2023-01-13T08:27:49.931Z,2.88
2023-01-13T08:30:54.231Z,2.71
2023-01-13T08:33:56.907Z,2.58
2023-01-13T08:37:00.231Z,2.77
2023-01-13T08:40:03.465Z,2.73
2023-01-13T08:43:07.063Z,2.76
2023-01-13T08:46:10.327Z,2.60
2023-01-13T08:49:13.580Z,2.63
2023-01-13T08:52:17.586Z,2.77
2023-01-13T08:55:20.692Z,2.70
2023-01-13T08:58:23.622Z,2.75
2023-01-13T09:01:28.408Z,2.53
2023-01-13T09:04:32.547Z,2.60
2023-01-13T09:07:37.122Z,2.51
2023-01-13T09:10:40.601Z,2.40
2023-01-13T09:13:43.604Z,2.45
2023-01-13T09:16:46.158Z,2.35
2023-01-13T09:19:49.900Z,2.28
2023-01-13T09:22:53.245Z,2.26
2023-01-13T09:25:56.241Z,2.13
2023-01-13T09:28:58.921Z,2.25
2023-01-13T09:32:01.821Z,2.33
2023-01-13T09:35:08.344Z,2.23
2023-01-13T09:38:11.584Z,2.20
2023-01-13T09:41:41.288Z,2.15
2023-01-13T09:44:52.561Z,2.14
2023-01-13T09:47:58.224Z,2.12
2023-01-13T09:51:16.951Z,2.21
2023-01-13T09:54:39.675Z,2.13
2023-01-13T09:57:43.871Z,2.09
2023-01-13T10:00:56.265Z,2.08
2023-01-13T10:04:13.773Z,2.11
2023-01-13T10:07:17.256Z,2.12
2023-01-13T10:10:37.133Z,2.11
2023-01-13T10:13:41.711Z,2.21
2023-01-13T10:17:12.603Z,2.30
2023-01-13T10:20:26.863Z,2.27
2023-01-13T10:23:56.825Z,2.04
2023-01-13T10:27:30.571Z,2.31
2023-01-13T10:30:39.233Z,2.34
2023-01-13T10:33:42.124Z,2.22
2023-01-13T10:36:59.687Z,2.36
2023-01-13T10:40:05.030Z,2.63
2023-01-13T10:43:13.476Z,2.52
2023-01-13T10:46:19.113Z,2.40
2023-01-13T10:49:36.380Z,2.37
2023-01-13T10:53:01.419Z,2.71
2023-01-13T10:56:17.655Z,2.61
2023-01-13T10:59:24.411Z,2.71
2023-01-13T11:02:33.543Z,2.57
2023-01-13T11:05:36.968Z,3.27
2023-01-13T11:08:49.897Z,2.85
2023-01-13T11:11:56.141Z,2.79
2023-01-13T11:15:03.127Z,2.83
2023-01-13T11:18:20.608Z,2.92
2023-01-13T11:21:37.416Z,2.83
2023-01-13T11:25:05.734Z,3.06
2023-01-13T11:28:19.643Z,3.03
2023-01-13T11:31:36.820Z,2.90
2023-01-13T11:34:41.986Z,3.09
2023-01-13T11:37:52.732Z,3.00
2023-01-13T11:41:09.439Z,3.09
2023-01-13T11:44:25.696Z,2.98
2023-01-13T11:47:29.956Z,3.16
2023-01-13T11:50:45.095Z,3.27
2023-01-13T11:54:03.259Z,3.28
2023-01-13T11:57:15.551Z,2.92
2023-01-13T12:00:38.708Z,2.98
2023-01-13T12:03:50.456Z,3.09
2023-01-13T12:07:14.399Z,3.19
2023-01-13T12:10:35.967Z,3.04
2023-01-13T12:13:57.354Z,2.98
2023-01-13T12:17:04.445Z,3.16
2023-01-13T12:20:20.281Z,3.12
2023-01-13T12:23:35.748Z,3.11
2023-01-13T12:26:43.836Z,3.28
2023-01-13T12:29:52.075Z,3.31
2023-01-13T12:33:00.084Z,3.29
2023-01-13T12:36:17.999Z,3.14
2023-01-13T12:39:24.537Z,3.38
2023-01-13T12:42:57.270Z,3.38
2023-01-13T12:46:26.234Z,3.37
2023-01-13T12:49:34.619Z,3.44
2023-01-13T12:52:47.532Z,3.45
2023-01-13T12:55:53.166Z,3.59
2023-01-13T12:59:35.057Z,3.64
2023-01-13T13:02:41.593Z,3.60
2023-01-13T13:05:59.613Z,3.65
2023-01-13T13:09:05.541Z,3.71
2023-01-13T13:13:02.700Z,3.67
2023-01-13T13:16:26.887Z,3.81
2023-01-13T13:19:33.227Z,4.04
2023-01-13T13:22:44.686Z,3.97
2023-01-13T13:26:13.673Z,3.88
2023-01-13T13:30:03.988Z,3.83
2023-01-13T13:33:12.933Z,3.99
2023-01-13T13:36:28.945Z,3.93
2023-01-13T13:39:50.674Z,3.90
2023-01-13T13:43:15.977Z,3.95
2023-01-13T13:46:43.494Z,4.00
2023-01-13T13:49:55.071Z,4.08
2023-01-13T13:53:09.297Z,4.09
2023-01-13T13:56:20.499Z,4.14
2023-01-13T13:59:27.057Z,4.04
2023-01-13T14:02:34.621Z,4.13
2023-01-13T14:05:38.017Z,4.15
2023-01-13T14:08:46.673Z,3.99
2023-01-13T14:12:16.098Z,3.97
2023-01-13T14:15:36.702Z,4.09
2023-01-13T14:18:46.495Z,4.12
2023-01-13T14:21:50.395Z,4.39
2023-01-13T14:24:57.825Z,4.24
2023-01-13T14:28:14.056Z,4.31
2023-01-13T14:31:20.374Z,4.32
2023-01-13T14:34:32.705Z,4.09
2023-01-13T14:37:36.393Z,4.16
2023-01-13T14:40:45.643Z,3.83
2023-01-13T14:43:50.845Z,3.96
2023-01-13T14:46:57.711Z,3.94
2023-01-13T14:50:11.492Z,4.09
2023-01-13T14:53:38.021Z,4.20
2023-01-13T14:56:56.114Z,4.07
2023-01-13T15:00:08.306Z,3.88
2023-01-13T15:03:20.080Z,3.92
2023-01-13T15:06:25.749Z,3.96
2023-01-13T15:09:41.938Z,4.08
2023-01-13T15:12:44.887Z,4.01
2023-01-13T15:15:50.868Z,4.29
2023-01-13T15:18:55.670Z,4.43
2023-01-13T15:21:59.581Z,4.52
2023-01-13T15:25:03.733Z,4.50
2023-01-13T15:28:08.261Z,4.41
2023-01-13T15:31:10.948Z,4.39
2023-01-13T15:34:14.049Z,4.36
2023-01-13T15:37:19.785Z,4.42
2023-01-13T15:40:33.448Z,4.41
2023-01-13T15:43:55.145Z,4.32
2023-01-13T15:47:01.411Z,4.49
2023-01-13T15:50:04.477Z,4.43
2023-01-13T15:53:14.253Z,4.35
2023-01-13T15:56:26.503Z,4.20
2023-01-13T15:59:30.524Z,4.22
2023-01-13T16:02:33.153Z,4.25
2023-01-13T16:05:36.247Z,4.42
2023-01-13T16:08:39.434Z,4.12
2023-01-13T16:11:43.051Z,4.07
2023-01-13T16:14:45.760Z,4.11
2023-01-13T16:17:55.921Z,4.14
2023-01-13T16:20:58.996Z,4.12
2023-01-13T16:24:08.454Z,4.08
2023-01-13T16:27:17.078Z,4.29
2023-01-13T16:30:32.792Z,4.30
2023-01-13T16:33:35.886Z,4.21
2023-01-13T16:36:38.784Z,4.36
2023-01-13T16:39:41.575Z,4.49
2023-01-13T16:42:44.785Z,4.43
2023-01-13T16:45:49.105Z,4.27
2023-01-13T16:48:56.800Z,4.22
2023-01-13T16:51:59.615Z,4.08
2023-01-13T16:55:07.165Z,4.09
2023-01-13T16:58:19.810Z,4.15
2023-01-13T17:01:29.376Z,4.04
2023-01-13T17:04:32.341Z,4.07
2023-01-13T17:07:35.804Z,3.97
2023-01-13T17:10:45.907Z,3.93
2023-01-13T17:13:57.297Z,3.88
2023-01-13T17:17:00.413Z,3.95
2023-01-13T17:20:04.330Z,3.95
2023-01-13T17:23:07.673Z,4.04
2023-01-13T17:26:28.942Z,4.03
2023-01-13T17:29:32.922Z,4.12
2023-01-13T17:32:36.333Z,3.97
2023-01-13T17:35:39.730Z,3.87
2023-01-13T17:38:42.852Z,4.00
2023-01-13T17:41:46.109Z,3.95
2023-01-13T17:44:50.593Z,3.88
2023-01-13T17:47:59.058Z,3.93
2023-01-13T17:51:11.338Z,3.88
2023-01-13T17:54:15.474Z,4.09
2023-01-13T17:57:18.750Z,4.19
2023-01-13T18:00:22.857Z,4.07
2023-01-13T18:03:26.191Z,4.12
2023-01-13T18:06:29.457Z,4.25
2023-01-13T18:09:37.147Z,4.25
2023-01-13T18:12:40.198Z,4.24
2023-01-13T18:15:45.858Z,4.29
2023-01-13T18:18:50.617Z,4.33
2023-01-13T18:22:12.895Z,4.20
2023-01-13T18:25:37.537Z,4.27
2023-01-13T18:28:41.003Z,4.21
2023-01-13T18:31:45.145Z,4.29
2023-01-13T18:34:53.985Z,4.17
2023-01-13T18:38:03.486Z,4.31
2023-01-13T18:41:27.340Z,4.36
2023-01-13T18:44:30.103Z,4.60
2023-01-13T18:47:33.758Z,4.49
2023-01-13T18:50:37.014Z,4.50
2023-01-13T18:53:41.889Z,4.37
2023-01-13T18:56:45.285Z,4.36
2023-01-13T18:59:57.674Z,4.24
2023-01-13T19:06:11.779Z,4.51
2023-01-13T19:09:19.895Z,4.32
2023-01-13T19:12:33.985Z,4.52
2023-01-13T19:15:37.747Z,4.53
2023-01-13T19:18:41.492Z,4.54
2023-01-13T19:21:44.536Z,4.57
2023-01-13T19:24:47.884Z,4.54
2023-01-13T19:27:50.685Z,4.37
2023-01-13T19:30:54.783Z,4.61
2023-01-13T19:33:58.480Z,4.52
2023-01-13T19:37:12.773Z,4.54
2023-01-13T19:40:16.588Z,4.63
2023-01-13T19:43:38.837Z,4.57
2023-01-13T19:46:42.016Z,4.69
2023-01-13T19:49:46.753Z,4.68
2023-01-13T19:52:56.285Z,4.69
2023-01-13T19:56:03.017Z,4.71
2023-01-13T19:59:08.954Z,4.66
2023-01-13T20:02:28.492Z,4.56
2023-01-13T20:05:34.119Z,4.57
2023-01-13T20:08:38.181Z,4.57
2023-01-13T20:11:41.891Z,4.67
2023-01-13T20:14:48.136Z,4.66
2023-01-13T20:17:51.747Z,4.63
2023-01-13T20:20:56.501Z,4.75
2023-01-13T20:23:59.835Z,4.78
2023-01-13T20:27:05.000Z,4.84
2023-01-13T20:30:13.377Z,4.75
2023-01-13T20:33:20.722Z,4.70
2023-01-13T20:36:31.538Z,5.11
2023-01-13T20:39:36.242Z,4.91
2023-01-13T20:42:44.947Z,4.92
2023-01-13T20:45:47.980Z,4.88
2023-01-13T20:48:51.226Z,4.87
2023-01-13T20:51:55.042Z,4.72
2023-01-13T20:54:58.105Z,4.76
2023-01-13T20:58:01.388Z,4.65
2023-01-13T21:01:05.229Z,4.69
2023-01-13T21:04:08.229Z,4.54
2023-01-13T21:07:13.781Z,4.61
2023-01-13T21:10:17.216Z,4.61
2023-01-13T21:13:38.621Z,4.68
2023-01-13T21:16:41.325Z,4.67
2023-01-13T21:19:44.345Z,4.62
2023-01-13T21:22:48.038Z,4.52
2023-01-13T21:25:52.786Z,4.64
2023-01-13T21:28:59.995Z,4.59
2023-01-13T21:32:04.614Z,4.45
2023-01-13T21:35:08.134Z,4.55
2023-01-13T21:38:12.183Z,4.42
2023-01-13T21:41:34.971Z,4.48
2023-01-13T21:44:56.650Z,4.33
2023-01-13T21:47:59.291Z,4.26
2023-01-13T21:51:02.469Z,4.24
2023-01-13T21:54:05.179Z,4.29
2023-01-13T21:57:08.362Z,4.27
2023-01-13T22:00:12.173Z,4.15
2023-01-13T22:03:18.720Z,4.36
2023-01-13T22:06:22.101Z,4.38
2023-01-13T22:09:24.927Z,4.45
2023-01-13T22:12:28.069Z,4.45
2023-01-13T22:15:32.846Z,4.35
2023-01-13T22:18:35.595Z,4.54
2023-01-13T22:21:38.795Z,4.41
2023-01-13T22:24:47.387Z,4.38
2023-01-13T22:27:50.528Z,4.46
2023-01-13T22:30:53.559Z,4.44
2023-01-13T22:33:56.447Z,4.48
2023-01-13T22:37:00.044Z,4.48
2023-01-13T22:40:06.015Z,4.39
2023-01-13T22:43:08.982Z,4.63
2023-01-13T22:46:13.210Z,4.68
2023-01-13T22:49:16.741Z,4.78
2023-01-13T22:52:19.789Z,4.60
2023-01-13T22:55:22.382Z,4.62
2023-01-13T22:58:26.275Z,4.65
2023-01-13T23:01:33.962Z,4.59
2023-01-13T23:04:37.659Z,4.62
2023-01-13T23:07:40.315Z,4.69
2023-01-13T23:10:44.847Z,4.63
2023-01-13T23:13:47.859Z,4.66
2023-01-13T23:16:50.970Z,4.66
2023-01-13T23:19:54.098Z,4.66
2023-01-13T23:23:00.550Z,4.70
2023-01-13T23:26:04.269Z,4.66
2023-01-13T23:29:11.011Z,4.59
2023-01-13T23:32:13.988Z,4.61
2023-01-13T23:35:16.912Z,4.63
2023-01-13T23:38:20.411Z,4.48
2023-01-13T23:41:25.270Z,4.42
2023-01-13T23:44:28.182Z,4.44
2023-01-13T23:47:31.094Z,4.48
2023-01-13T23:50:34.079Z,4.25
2023-01-13T23:53:42.090Z,4.28
2023-01-13T23:56:44.978Z,4.34
2023-01-13T23:59:48.267Z,4.28
